createdAt,value
2023-01-12T00:02:38.185Z,16.53
2023-01-12T00:07:40.699Z,16.56
2023-01-12T00:12:42.807Z,16.55
2023-01-12T00:17:44.948Z,16.54
2023-01-12T00:22:49.921Z,16.51
2023-01-12T00:27:52.090Z,16.46
2023-01-12T00:32:54.368Z,16.53
2023-01-12T00:37:56.502Z,16.56
2023-01-12T00:43:17.227Z,16.57
2023-01-12T00:48:19.546Z,16.55
2023-01-12T00:53:21.815Z,16.52
2023-01-12T00:58:23.930Z,16.52
2023-01-12T01:03:26.223Z,16.51
2023-01-12T01:08:28.402Z,16.52
2023-01-12T01:13:30.867Z,16.52
2023-01-12T01:18:33.121Z,16.51
2023-01-12T01:23:37.380Z,16.51
2023-01-12T01:28:40.019Z,16.51
2023-01-12T01:33:42.945Z,16.54
2023-01-12T01:38:47.174Z,16.55
2023-01-12T01:43:53.288Z,16.55
2023-01-12T01:48:56.733Z,16.51
2023-01-12T01:54:00.148Z,16.51
2023-01-12T01:59:10.410Z,16.51
2023-01-12T02:04:13.206Z,16.50
2023-01-12T02:09:26.187Z,16.50
2023-01-12T02:14:47.009Z,16.50
2023-01-12T02:20:03.924Z,16.50
2023-01-12T02:25:38.270Z,16.48
2023-01-12T02:31:08.004Z,16.51
2023-01-12T02:36:26.144Z,16.53
2023-01-12T02:41:58.991Z,16.54
2023-01-12T02:47:05.887Z,16.52
2023-01-12T02:52:13.296Z,16.52
2023-01-12T02:57:17.048Z,16.50
2023-01-12T03:02:21.705Z,16.50
2023-01-12T03:08:00.516Z,16.48
2023-01-12T03:13:07.787Z,16.49
2023-01-12T03:18:19.551Z,16.47
2023-01-12T03:23:35.610Z,16.48
2023-01-12T03:28:43.502Z,16.50
2023-01-12T03:33:46.200Z,16.49
2023-01-12T03:39:11.900Z,16.50
2023-01-12T03:44:41.585Z,16.45
2023-01-12T03:49:53.725Z,16.48
2023-01-12T03:54:58.987Z,16.51
2023-01-12T04:00:03.211Z,16.52
2023-01-12T04:05:15.453Z,16.52
2023-01-12T04:10:17.689Z,16.51
2023-01-12T04:15:19.924Z,16.48
2023-01-12T04:20:22.322Z,16.47
2023-01-12T04:25:24.984Z,16.48
2023-01-12T04:30:28.655Z,16.50
2023-01-12T04:35:30.784Z,16.52
2023-01-12T04:40:32.908Z,16.51
2023-01-12T04:45:37.422Z,16.49
2023-01-12T04:50:40.540Z,16.48
2023-01-12T04:55:43.787Z,16.46
2023-01-12T05:00:46.156Z,16.49
2023-01-12T05:05:48.332Z,16.49
2023-01-12T05:10:58.799Z,16.50
2023-01-12T05:16:12.254Z,16.50
2023-01-12T05:21:16.786Z,16.48
2023-01-12T05:26:20.117Z,16.46
2023-01-12T05:31:22.376Z,16.45
2023-01-12T05:36:26.490Z,16.46
2023-01-12T05:41:28.906Z,16.45
2023-01-12T05:46:33.508Z,16.45
2023-01-12T05:51:35.681Z,16.46
2023-01-12T05:56:37.826Z,16.45
2023-01-12T06:01:41.076Z,16.48
2023-01-12T06:06:43.266Z,16.49
2023-01-12T06:12:03.734Z,16.51
2023-01-12T06:17:07.934Z,16.48
2023-01-12T06:22:10.745Z,16.47
2023-01-12T06:27:12.929Z,16.46
2023-01-12T06:32:15.177Z,16.46
2023-01-12T06:37:17.297Z,16.47
2023-01-12T06:42:31.971Z,16.48
2023-01-12T06:47:34.122Z,16.50
2023-01-12T06:52:36.261Z,16.46
2023-01-12T06:57:38.587Z,16.46
2023-01-12T07:02:40.754Z,16.45
2023-01-12T07:07:43.719Z,16.46
2023-01-12T07:12:45.945Z,16.47
2023-01-12T07:17:48.100Z,16.49
2023-01-12T07:22:50.310Z,16.48
2023-01-12T07:27:54.287Z,16.46
2023-01-12T07:33:05.679Z,16.46
2023-01-12T07:38:08.582Z,16.45
2023-01-12T07:43:11.852Z,16.47
2023-01-12T07:48:16.136Z,16.48
2023-01-12T07:53:19.869Z,16.48
2023-01-12T07:58:22.085Z,16.47
2023-01-12T08:03:24.213Z,16.46
2023-01-12T08:08:26.539Z,16.45
2023-01-12T08:13:28.723Z,16.45
2023-01-12T08:18:37.853Z,16.45
2023-01-12T08:23:47.005Z,16.44
2023-01-12T08:28:54.429Z,16.44
2023-01-12T08:33:58.285Z,16.43
2023-01-12T08:39:01.820Z,16.47
2023-01-12T08:44:09.556Z,16.47
2023-01-12T08:49:16.871Z,16.51
2023-01-12T08:54:20.769Z,16.47
2023-01-12T08:59:23.178Z,16.44
2023-01-12T09:04:25.612Z,16.43
2023-01-12T09:09:27.881Z,16.45
2023-01-12T09:14:30.102Z,16.48
2023-01-12T09:19:32.378Z,16.50
2023-01-12T09:24:34.485Z,16.48
2023-01-12T09:29:36.576Z,16.47
2023-01-12T09:34:38.797Z,16.46
2023-01-12T09:39:41.062Z,16.46
2023-01-12T09:45:05.771Z,16.45
2023-01-12T09:50:19.909Z,16.47
2023-01-12T09:55:24.207Z,16.49
2023-01-12T10:00:28.477Z,16.47
2023-01-12T10:05:54.227Z,16.45
2023-01-12T10:11:23.261Z,16.44
2023-01-12T10:16:52.522Z,16.43
2023-01-12T10:21:55.649Z,16.45
2023-01-12T10:27:02.646Z,16.44
2023-01-12T10:32:05.127Z,16.45
2023-01-12T10:37:10.969Z,16.46
2023-01-12T10:42:39.399Z,16.48
2023-01-12T10:47:42.985Z,16.48
2023-01-12T10:52:45.858Z,16.47
2023-01-12T10:57:49.653Z,16.47
2023-01-12T11:02:52.607Z,16.47
2023-01-12T11:07:54.819Z,16.47
2023-01-12T11:13:00.483Z,16.49
2023-01-12T11:18:20.548Z,16.51
2023-01-12T11:23:39.536Z,16.52
2023-01-12T11:29:28.310Z,16.50
2023-01-12T11:34:38.014Z,16.50
2023-01-12T11:39:42.852Z,16.48
2023-01-12T11:44:51.029Z,16.48
2023-01-12T11:50:11.045Z,16.50
2023-01-12T11:55:16.899Z,16.53
2023-01-12T12:00:27.536Z,16.52
2023-01-12T12:05:51.028Z,16.50
2023-01-12T12:11:13.315Z,16.49
2023-01-12T12:16:26.071Z,16.49
2023-01-12T12:21:30.926Z,16.50
2023-01-12T12:26:36.880Z,16.50
2023-01-12T12:32:01.416Z,16.50
2023-01-12T12:37:15.814Z,16.50
2023-01-12T12:42:42.031Z,16.51
2023-01-12T12:48:03.070Z,16.51
2023-01-12T12:53:13.573Z,16.51
2023-01-12T12:58:21.844Z,16.51
2023-01-12T13:03:48.171Z,16.50
2023-01-12T13:09:12.807Z,16.51
2023-01-12T13:14:37.273Z,16.52
2023-01-12T13:19:42.469Z,16.48
2023-01-12T13:24:46.160Z,16.53
2023-01-12T13:29:48.525Z,16.53
2023-01-12T13:34:52.149Z,16.53
2023-01-12T13:40:18.512Z,16.51
2023-01-12T13:45:22.351Z,16.53
2023-01-12T13:50:25.456Z,16.50
2023-01-12T13:55:33.300Z,16.54
2023-01-12T14:00:35.967Z,16.52
2023-01-12T14:05:55.824Z,16.52
2023-01-12T14:11:31.929Z,16.52
2023-01-12T14:17:05.579Z,16.52
2023-01-12T14:22:18.703Z,16.48
2023-01-12T14:27:26.735Z,16.53
2023-01-12T14:32:29.699Z,16.54
2023-01-12T14:37:35.608Z,16.54
2023-01-12T14:42:56.438Z,16.54
2023-01-12T14:48:19.654Z,16.53
2023-01-12T14:53:25.695Z,16.54
2023-01-12T14:58:28.209Z,16.57
2023-01-12T15:03:39.342Z,16.59
2023-01-12T15:09:03.583Z,16.56
2023-01-12T15:14:06.990Z,16.56
2023-01-12T15:19:29.376Z,16.55
2023-01-12T15:24:54.477Z,16.55
2023-01-12T15:29:57.043Z,16.55
2023-01-12T15:35:00.263Z,16.58
2023-01-12T15:40:02.528Z,16.60
2023-01-12T15:45:16.092Z,16.59
2023-01-12T15:50:18.242Z,16.58
2023-01-12T15:55:22.719Z,16.59
2023-01-12T16:00:25.045Z,16.57
2023-01-12T16:05:27.319Z,16.57
2023-01-12T16:10:30.550Z,16.60
2023-01-12T16:15:32.805Z,16.61
2023-01-12T16:20:34.919Z,16.61
2023-01-12T16:25:38.316Z,16.60
2023-01-12T16:30:45.185Z,16.58
2023-01-12T16:35:47.434Z,16.57
2023-01-12T16:40:50.911Z,16.58
2023-01-12T16:45:53.238Z,16.57
2023-01-12T16:50:55.470Z,16.57
2023-01-12T16:56:02.289Z,16.58
2023-01-12T17:01:22.079Z,16.55
2023-01-12T17:06:26.778Z,16.59
2023-01-12T17:11:31.003Z,16.61
2023-01-12T17:16:33.229Z,16.60
2023-01-12T17:21:35.523Z,16.57
2023-01-12T17:26:39.805Z,16.56
2023-01-12T17:31:42.813Z,16.56
2023-01-12T17:36:45.080Z,16.57
2023-01-12T17:42:05.544Z,16.56
2023-01-12T17:47:07.905Z,16.55
2023-01-12T17:52:10.087Z,16.55
2023-01-12T17:57:12.732Z,16.55
2023-01-12T18:02:15.426Z,16.55
2023-01-12T18:07:17.627Z,16.55
2023-01-12T18:12:21.708Z,16.56
2023-01-12T18:17:24.443Z,16.57
2023-01-12T18:22:26.809Z,16.59
2023-01-12T18:27:28.940Z,16.58
2023-01-12T18:32:31.072Z,16.56
2023-01-12T18:37:33.228Z,16.55
2023-01-12T18:42:50.706Z,16.54
2023-01-12T18:48:11.607Z,16.54
2023-01-12T18:53:26.905Z,16.53
2023-01-12T18:58:31.873Z,16.53
2023-01-12T19:03:36.360Z,16.55
2023-01-12T19:08:57.335Z,16.56
2023-01-12T19:14:17.915Z,16.57
2023-01-12T19:19:29.042Z,16.54
2023-01-12T19:24:49.705Z,16.53
2023-01-12T19:29:51.783Z,16.53
2023-01-12T19:35:02.392Z,16.53
2023-01-12T19:40:31.126Z,16.53
2023-01-12T19:45:36.563Z,16.52
2023-01-12T19:50:40.027Z,16.53
2023-01-12T19:55:43.083Z,16.52
2023-01-12T20:00:46.529Z,16.52
2023-01-12T20:05:53.758Z,16.53
2023-01-12T20:10:58.186Z,16.55
2023-01-12T20:16:06.174Z,16.54
2023-01-12T20:21:09.651Z,16.52
2023-01-12T20:26:13.384Z,16.51
2023-01-12T20:31:16.410Z,16.53
2023-01-12T20:36:18.898Z,16.54
2023-01-12T20:41:22.710Z,16.55
2023-01-12T20:46:25.204Z,16.52
2023-01-12T20:51:27.388Z,16.49
2023-01-12T20:56:29.876Z,16.51
2023-01-12T21:01:32.034Z,16.50
2023-01-12T21:06:34.360Z,16.49
2023-01-12T21:11:37.301Z,16.49
2023-01-12T21:16:39.501Z,16.51
2023-01-12T21:21:41.782Z,16.53
2023-01-12T21:26:44.094Z,16.52
2023-01-12T21:31:46.434Z,16.51
2023-01-12T21:36:48.984Z,16.48
2023-01-12T21:42:09.576Z,16.49
2023-01-12T21:47:11.759Z,16.51
2023-01-12T21:52:13.955Z,16.51
2023-01-12T21:57:16.104Z,16.48
2023-01-12T22:02:18.408Z,16.50
2023-01-12T22:07:20.540Z,16.47
2023-01-12T22:12:22.694Z,16.48
2023-01-12T22:17:24.850Z,16.50
2023-01-12T22:22:28.039Z,16.47
2023-01-12T22:27:31.396Z,16.49
2023-01-12T22:32:33.517Z,16.48
2023-01-12T22:37:37.000Z,16.46
2023-01-12T22:42:58.181Z,16.48
2023-01-12T22:48:00.383Z,16.48
2023-01-12T22:53:02.772Z,16.48
2023-01-12T22:58:04.899Z,16.46
2023-01-12T23:03:10.943Z,16.44
2023-01-12T23:08:14.160Z,16.45
2023-01-12T23:13:19.545Z,16.46
2023-01-12T23:18:27.579Z,16.46
2023-01-12T23:23:30.899Z,16.45
2023-01-12T23:28:37.081Z,16.43
2023-01-12T23:33:40.636Z,16.43
2023-01-12T23:38:43.719Z,16.42
2023-01-12T23:43:47.909Z,16.41
2023-01-12T23:48:51.349Z,16.44
2023-01-12T23:53:54.825Z,16.44
2023-01-12T23:58:57.688Z,16.44
